sensor_id;sensor_type;location;lat;lon;timestamp;temperature;humidity
12481;DHT22;6305;48.398;11.762;2023-08-08T00:01:36;9.50;99.90
12481;DHT22;6305;48.398;11.762;2023-08-08T00:04:04;9.50;99.90
12481;DHT22;6305;48.398;11.762;2023-08-08T00:06:32;9.50;99.90
12481;DHT22;6305;48.398;11.762;2023-08-08T00:08:59;9.50;99.90
12481;DHT22;6305;48.398;11.762;2023-08-08T00:11:26;9.40;99.90
12481;DHT22;6305;48.398;11.762;2023-08-08T00:13:53;9.30;99.90
12481;DHT22;6305;48.398;11.762;2023-08-08T00:16:20;9.30;99.90
12481;DHT22;6305;48.398;11.762;2023-08-08T00:18:47;9.40;99.90
12481;DHT22;6305;48.398;11.762;2023-08-08T00:21:16;9.40;99.90
12481;DHT22;6305;48.398;11.762;2023-08-08T00:23:44;9.40;99.90
12481;DHT22;6305;48.398;11.762;2023-08-08T00:26:11;9.50;99.90
12481;DHT22;6305;48.398;11.762;2023-08-08T00:28:38;9.50;99.90
12481;DHT22;6305;48.398;11.762;2023-08-08T00:31:05;9.50;99.90
12481;DHT22;6305;48.398;11.762;2023-08-08T00:33:32;9.50;99.90
12481;DHT22;6305;48.398;11.762;2023-08-08T00:35:59;9.50;99.90
12481;DHT22;6305;48.398;11.762;2023-08-08T00:38:26;9.40;99.90
12481;DHT22;6305;48.398;11.762;2023-08-08T00:40:54;9.30;99.90
12481;DHT22;6305;48.398;11.762;2023-08-08T00:43:21;9.20;99.90
12481;DHT22;6305;48.398;11.762;2023-08-08T00:45:49;9.10;99.90
12481;DHT22;6305;48.398;11.762;2023-08-08T00:48:16;9.10;99.90
12481;DHT22;6305;48.398;11.762;2023-08-08T00:50:45;9.00;99.90
12481;DHT22;6305;48.398;11.762;2023-08-08T00:53:15;9.00;99.90
12481;DHT22;6305;48.398;11.762;2023-08-08T00:55:42;9.00;99.90
12481;DHT22;6305;48.398;11.762;2023-08-08T00:58:11;8.90;99.90
12481;DHT22;6305;48.398;11.762;2023-08-08T01:00:38;8.90;99.90
12481;DHT22;6305;48.398;11.762;2023-08-08T01:03:05;8.80;99.90
12481;DHT22;6305;48.398;11.762;2023-08-08T01:05:38;8.80;99.90
12481;DHT22;6305;48.398;11.762;2023-08-08T01:08:08;8.90;99.90
12481;DHT22;6305;48.398;11.762;2023-08-08T01:10:38;9.00;99.90
12481;DHT22;6305;48.398;11.762;2023-08-08T01:13:08;9.00;99.90
12481;DHT22;6305;48.398;11.762;2023-08-08T01:15:37;9.00;99.90
12481;DHT22;6305;48.398;11.762;2023-08-08T01:18:05;8.90;99.90
12481;DHT22;6305;48.398;11.762;2023-08-08T01:20:33;9.00;99.90
12481;DHT22;6305;48.398;11.762;2023-08-08T01:23:10;9.00;99.90
12481;DHT22;6305;48.398;11.762;2023-08-08T01:25:41;9.10;99.90
12481;DHT22;6305;48.398;11.762;2023-08-08T01:28:08;9.20;99.90
12481;DHT22;6305;48.398;11.762;2023-08-08T01:30:36;9.30;99.90
12481;DHT22;6305;48.398;11.762;2023-08-08T01:33:03;9.40;99.90
12481;DHT22;6305;48.398;11.762;2023-08-08T01:35:34;9.40;99.90
12481;DHT22;6305;48.398;11.762;2023-08-08T01:38:10;9.40;99.90
12481;DHT22;6305;48.398;11.762;2023-08-08T01:40:38;9.40;99.90
12481;DHT22;6305;48.398;11.762;2023-08-08T01:43:08;9.40;99.90
12481;DHT22;6305;48.398;11.762;2023-08-08T01:45:36;9.40;99.90
12481;DHT22;6305;48.398;11.762;2023-08-08T01:48:07;9.30;99.90
12481;DHT22;6305;48.398;11.762;2023-08-08T01:50:34;9.40;99.90
12481;DHT22;6305;48.398;11.762;2023-08-08T01:53:01;9.50;99.90
12481;DHT22;6305;48.398;11.762;2023-08-08T01:55:28;9.60;99.90
12481;DHT22;6305;48.398;11.762;2023-08-08T01:57:55;9.60;99.90
12481;DHT22;6305;48.398;11.762;2023-08-08T02:00:23;9.60;99.90
12481;DHT22;6305;48.398;11.762;2023-08-08T02:02:52;9.60;99.90
12481;DHT22;6305;48.398;11.762;2023-08-08T02:05:20;9.60;99.90
12481;DHT22;6305;48.398;11.762;2023-08-08T02:07:47;9.60;99.90
12481;DHT22;6305;48.398;11.762;2023-08-08T02:10:14;9.60;99.90
12481;DHT22;6305;48.398;11.762;2023-08-08T02:12:41;9.50;99.90
12481;DHT22;6305;48.398;11.762;2023-08-08T02:15:09;9.40;99.90
12481;DHT22;6305;48.398;11.762;2023-08-08T02:17:38;9.30;99.90
12481;DHT22;6305;48.398;11.762;2023-08-08T02:20:06;9.30;99.90
12481;DHT22;6305;48.398;11.762;2023-08-08T02:22:34;9.20;99.90
12481;DHT22;6305;48.398;11.762;2023-08-08T02:25:02;9.20;99.90
12481;DHT22;6305;48.398;11.762;2023-08-08T02:27:29;9.10;99.90
12481;DHT22;6305;48.398;11.762;2023-08-08T02:29:57;9.00;99.90
12481;DHT22;6305;48.398;11.762;2023-08-08T02:32:24;9.00;99.90
12481;DHT22;6305;48.398;11.762;2023-08-08T02:34:55;8.90;99.90
12481;DHT22;6305;48.398;11.762;2023-08-08T02:37:23;8.90;99.90
12481;DHT22;6305;48.398;11.762;2023-08-08T02:39:50;8.80;99.90
12481;DHT22;6305;48.398;11.762;2023-08-08T02:42:17;8.80;99.90
12481;DHT22;6305;48.398;11.762;2023-08-08T02:44:44;8.70;99.90
12481;DHT22;6305;48.398;11.762;2023-08-08T02:47:11;8.70;99.90
12481;DHT22;6305;48.398;11.762;2023-08-08T02:49:38;8.60;99.90
12481;DHT22;6305;48.398;11.762;2023-08-08T02:52:07;8.60;99.90
12481;DHT22;6305;48.398;11.762;2023-08-08T02:54:35;8.50;99.90
12481;DHT22;6305;48.398;11.762;2023-08-08T02:57:03;8.40;99.90
12481;DHT22;6305;48.398;11.762;2023-08-08T02:59:30;8.40;99.90
12481;DHT22;6305;48.398;11.762;2023-08-08T03:02:00;8.50;99.90
12481;DHT22;6305;48.398;11.762;2023-08-08T03:04:27;8.50;99.90
12481;DHT22;6305;48.398;11.762;2023-08-08T03:06:54;8.50;99.90
12481;DHT22;6305;48.398;11.762;2023-08-08T03:09:23;8.60;99.90
12481;DHT22;6305;48.398;11.762;2023-08-08T03:11:50;8.70;99.90
12481;DHT22;6305;48.398;11.762;2023-08-08T03:14:17;8.80;99.90
12481;DHT22;6305;48.398;11.762;2023-08-08T03:16:44;8.80;99.90
12481;DHT22;6305;48.398;11.762;2023-08-08T03:19:11;8.90;99.90
12481;DHT22;6305;48.398;11.762;2023-08-08T03:21:39;8.90;99.90
12481;DHT22;6305;48.398;11.762;2023-08-08T03:24:06;9.00;99.90
12481;DHT22;6305;48.398;11.762;2023-08-08T03:26:35;9.10;99.90
12481;DHT22;6305;48.398;11.762;2023-08-08T03:29:02;9.20;99.90
12481;DHT22;6305;48.398;11.762;2023-08-08T03:31:35;9.20;99.90
12481;DHT22;6305;48.398;11.762;2023-08-08T03:34:04;9.30;99.90
12481;DHT22;6305;48.398;11.762;2023-08-08T03:36:32;9.30;99.90
12481;DHT22;6305;48.398;11.762;2023-08-08T03:38:59;9.30;99.90
12481;DHT22;6305;48.398;11.762;2023-08-08T03:41:26;9.20;99.90
12481;DHT22;6305;48.398;11.762;2023-08-08T03:43:54;9.20;99.90
12481;DHT22;6305;48.398;11.762;2023-08-08T03:46:22;9.30;99.90
12481;DHT22;6305;48.398;11.762;2023-08-08T03:48:49;9.30;99.90
12481;DHT22;6305;48.398;11.762;2023-08-08T03:51:16;9.40;99.90
12481;DHT22;6305;48.398;11.762;2023-08-08T03:53:43;9.40;99.90
12481;DHT22;6305;48.398;11.762;2023-08-08T03:56:10;9.40;99.90
12481;DHT22;6305;48.398;11.762;2023-08-08T03:58:38;9.40;99.90
12481;DHT22;6305;48.398;11.762;2023-08-08T04:01:07;9.50;99.90
12481;DHT22;6305;48.398;11.762;2023-08-08T04:03:34;9.50;99.90
12481;DHT22;6305;48.398;11.762;2023-08-08T04:06:02;9.50;99.90
12481;DHT22;6305;48.398;11.762;2023-08-08T04:08:31;9.60;99.90
12481;DHT22;6305;48.398;11.762;2023-08-08T04:10:58;9.70;99.90
12481;DHT22;6305;48.398;11.762;2023-08-08T04:13:25;9.70;99.90
12481;DHT22;6305;48.398;11.762;2023-08-08T04:15:52;9.80;99.90
12481;DHT22;6305;48.398;11.762;2023-08-08T04:18:21;9.80;99.90
12481;DHT22;6305;48.398;11.762;2023-08-08T04:20:47;9.80;99.90
12481;DHT22;6305;48.398;11.762;2023-08-08T04:23:14;9.90;99.90
12481;DHT22;6305;48.398;11.762;2023-08-08T04:25:41;9.90;99.90
12481;DHT22;6305;48.398;11.762;2023-08-08T04:28:08;10.00;99.90
12481;DHT22;6305;48.398;11.762;2023-08-08T04:30:35;10.00;99.90
12481;DHT22;6305;48.398;11.762;2023-08-08T04:33:03;10.10;99.90
12481;DHT22;6305;48.398;11.762;2023-08-08T04:35:31;10.10;99.90
12481;DHT22;6305;48.398;11.762;2023-08-08T04:37:59;10.20;99.90
12481;DHT22;6305;48.398;11.762;2023-08-08T04:40:26;10.20;99.90
12481;DHT22;6305;48.398;11.762;2023-08-08T04:42:53;10.30;99.90
12481;DHT22;6305;48.398;11.762;2023-08-08T04:45:19;10.40;99.90
12481;DHT22;6305;48.398;11.762;2023-08-08T04:47:47;10.50;99.90
12481;DHT22;6305;48.398;11.762;2023-08-08T04:50:14;10.60;99.90
12481;DHT22;6305;48.398;11.762;2023-08-08T04:52:42;10.70;99.90
12481;DHT22;6305;48.398;11.762;2023-08-08T04:55:09;10.80;99.90
12481;DHT22;6305;48.398;11.762;2023-08-08T04:57:36;10.90;99.90
12481;DHT22;6305;48.398;11.762;2023-08-08T05:00:04;11.00;99.90
12481;DHT22;6305;48.398;11.762;2023-08-08T05:02:34;11.20;99.90
12481;DHT22;6305;48.398;11.762;2023-08-08T05:05:01;11.30;99.90
12481;DHT22;6305;48.398;11.762;2023-08-08T05:07:28;11.40;99.90
12481;DHT22;6305;48.398;11.762;2023-08-08T05:09:57;11.60;99.90
12481;DHT22;6305;48.398;11.762;2023-08-08T05:12:24;11.70;99.90
12481;DHT22;6305;48.398;11.762;2023-08-08T05:14:51;11.90;99.90
12481;DHT22;6305;48.398;11.762;2023-08-08T05:17:17;12.10;99.90
12481;DHT22;6305;48.398;11.762;2023-08-08T05:19:45;12.40;99.90
12481;DHT22;6305;48.398;11.762;2023-08-08T05:22:11;12.60;99.90
12481;DHT22;6305;48.398;11.762;2023-08-08T05:24:38;12.80;99.90
12481;DHT22;6305;48.398;11.762;2023-08-08T05:27:07;13.00;99.90
12481;DHT22;6305;48.398;11.762;2023-08-08T05:29:34;13.10;99.90
12481;DHT22;6305;48.398;11.762;2023-08-08T05:32:04;13.20;99.90
12481;DHT22;6305;48.398;11.762;2023-08-08T05:34:32;13.30;99.90
12481;DHT22;6305;48.398;11.762;2023-08-08T05:36:59;13.50;99.90
12481;DHT22;6305;48.398;11.762;2023-08-08T05:39:26;13.60;99.90
12481;DHT22;6305;48.398;11.762;2023-08-08T05:41:53;13.70;99.90
12481;DHT22;6305;48.398;11.762;2023-08-08T05:44:22;13.80;99.90
12481;DHT22;6305;48.398;11.762;2023-08-08T05:46:49;14.00;99.90
12481;DHT22;6305;48.398;11.762;2023-08-08T05:49:16;14.10;99.90
12481;DHT22;6305;48.398;11.762;2023-08-08T05:51:43;14.40;99.90
12481;DHT22;6305;48.398;11.762;2023-08-08T05:54:10;14.70;99.90
12481;DHT22;6305;48.398;11.762;2023-08-08T05:56:38;15.00;99.90
12481;DHT22;6305;48.398;11.762;2023-08-08T05:59:05;15.30;99.90
12481;DHT22;6305;48.398;11.762;2023-08-08T06:01:33;15.70;99.90
12481;DHT22;6305;48.398;11.762;2023-08-08T06:04:01;16.10;99.90
12481;DHT22;6305;48.398;11.762;2023-08-08T06:06:29;16.10;99.90
12481;DHT22;6305;48.398;11.762;2023-08-08T06:08:56;16.10;99.90
12481;DHT22;6305;48.398;11.762;2023-08-08T06:11:23;16.00;99.90
12481;DHT22;6305;48.398;11.762;2023-08-08T06:13:50;16.00;99.90
12481;DHT22;6305;48.398;11.762;2023-08-08T06:16:16;16.40;99.90
12481;DHT22;6305;48.398;11.762;2023-08-08T06:18:45;16.70;99.90
12481;DHT22;6305;48.398;11.762;2023-08-08T06:21:12;17.10;99.90
12481;DHT22;6305;48.398;11.762;2023-08-08T06:23:39;17.40;99.90
12481;DHT22;6305;48.398;11.762;2023-08-08T06:26:06;17.40;99.90
12481;DHT22;6305;48.398;11.762;2023-08-08T06:28:33;17.20;99.90
12481;DHT22;6305;48.398;11.762;2023-08-08T06:31:01;17.10;99.90
12481;DHT22;6305;48.398;11.762;2023-08-08T06:33:27;16.90;99.90
12481;DHT22;6305;48.398;11.762;2023-08-08T06:35:57;17.70;99.90
12481;DHT22;6305;48.398;11.762;2023-08-08T06:38:24;18.90;99.90
12481;DHT22;6305;48.398;11.762;2023-08-08T06:41:10;19.70;99.90
12481;DHT22;6305;48.398;11.762;2023-08-08T06:43:55;20.60;96.60
12481;DHT22;6305;48.398;11.762;2023-08-08T06:46:41;20.70;94.00
12481;DHT22;6305;48.398;11.762;2023-08-08T06:49:08;21.10;92.10
12481;DHT22;6305;48.398;11.762;2023-08-08T06:51:36;21.50;87.30
12481;DHT22;6305;48.398;11.762;2023-08-08T06:54:03;22.00;87.00
12481;DHT22;6305;48.398;11.762;2023-08-08T06:56:30;23.10;78.70
12481;DHT22;6305;48.398;11.762;2023-08-08T06:58:57;23.70;75.70
12481;DHT22;6305;48.398;11.762;2023-08-08T07:01:24;24.20;67.20
12481;DHT22;6305;48.398;11.762;2023-08-08T07:03:51;25.40;65.30
12481;DHT22;6305;48.398;11.762;2023-08-08T07:06:18;26.30;60.40
12481;DHT22;6305;48.398;11.762;2023-08-08T07:08:46;26.20;58.40
12481;DHT22;6305;48.398;11.762;2023-08-08T07:11:13;27.40;56.70
12481;DHT22;6305;48.398;11.762;2023-08-08T07:13:40;28.20;52.80
12481;DHT22;6305;48.398;11.762;2023-08-08T07:16:07;28.40;51.40
12481;DHT22;6305;48.398;11.762;2023-08-08T07:18:34;29.10;50.70
12481;DHT22;6305;48.398;11.762;2023-08-08T07:21:01;29.60;47.80
12481;DHT22;6305;48.398;11.762;2023-08-08T07:23:28;30.20;47.50
12481;DHT22;6305;48.398;11.762;2023-08-08T07:25:57;30.60;45.30
12481;DHT22;6305;48.398;11.762;2023-08-08T07:28:24;30.20;45.00
12481;DHT22;6305;48.398;11.762;2023-08-08T07:30:51;29.70;44.20
12481;DHT22;6305;48.398;11.762;2023-08-08T07:33:18;29.30;45.50
12481;DHT22;6305;48.398;11.762;2023-08-08T07:35:44;29.80;45.30
12481;DHT22;6305;48.398;11.762;2023-08-08T07:38:12;30.30;43.80
12481;DHT22;6305;48.398;11.762;2023-08-08T07:40:38;30.80;44.40
12481;DHT22;6305;48.398;11.762;2023-08-08T07:43:07;31.60;42.90
12481;DHT22;6305;48.398;11.762;2023-08-08T07:45:34;31.90;41.60
12481;DHT22;6305;48.398;11.762;2023-08-08T07:48:03;32.40;40.60
12481;DHT22;6305;48.398;11.762;2023-08-08T07:50:30;32.90;40.20
12481;DHT22;6305;48.398;11.762;2023-08-08T07:52:57;32.10;38.90
12481;DHT22;6305;48.398;11.762;2023-08-08T07:55:24;31.20;39.80
12481;DHT22;6305;48.398;11.762;2023-08-08T07:57:51;29.90;41.60
12481;DHT22;6305;48.398;11.762;2023-08-08T08:00:20;30.20;42.40
12481;DHT22;6305;48.398;11.762;2023-08-08T08:02:47;30.60;41.70
12481;DHT22;6305;48.398;11.762;2023-08-08T08:05:14;30.30;41.40
12481;DHT22;6305;48.398;11.762;2023-08-08T08:07:42;30.50;41.20
12481;DHT22;6305;48.398;11.762;2023-08-08T08:10:12;30.60;41.90
12481;DHT22;6305;48.398;11.762;2023-08-08T08:12:40;31.10;41.40
12481;DHT22;6305;48.398;11.762;2023-08-08T08:15:08;31.30;40.90
12481;DHT22;6305;48.398;11.762;2023-08-08T08:17:37;31.30;40.90
12481;DHT22;6305;48.398;11.762;2023-08-08T08:20:05;31.30;40.90
12481;DHT22;6305;48.398;11.762;2023-08-08T08:22:36;30.00;40.90
12481;DHT22;6305;48.398;11.762;2023-08-08T08:25:04;29.30;42.60
12481;DHT22;6305;48.398;11.762;2023-08-08T08:27:33;29.20;43.50
12481;DHT22;6305;48.398;11.762;2023-08-08T08:30:00;30.10;42.80
12481;DHT22;6305;48.398;11.762;2023-08-08T08:32:32;31.10;42.20
12481;DHT22;6305;48.398;11.762;2023-08-08T08:35:00;31.80;40.10
12481;DHT22;6305;48.398;11.762;2023-08-08T08:37:27;31.50;39.10
12481;DHT22;6305;48.398;11.762;2023-08-08T08:39:54;31.40;39.90
12481;DHT22;6305;48.398;11.762;2023-08-08T08:42:22;31.90;39.50
12481;DHT22;6305;48.398;11.762;2023-08-08T08:44:49;31.60;40.00
12481;DHT22;6305;48.398;11.762;2023-08-08T08:47:19;31.30;39.70
12481;DHT22;6305;48.398;11.762;2023-08-08T08:49:47;30.30;39.80
12481;DHT22;6305;48.398;11.762;2023-08-08T08:52:14;28.80;41.60
12481;DHT22;6305;48.398;11.762;2023-08-08T08:54:41;26.60;44.50
12481;DHT22;6305;48.398;11.762;2023-08-08T08:57:08;26.50;46.10
12481;DHT22;6305;48.398;11.762;2023-08-08T08:59:35;27.20;46.30
12481;DHT22;6305;48.398;11.762;2023-08-08T09:02:03;28.40;45.00
12481;DHT22;6305;48.398;11.762;2023-08-08T09:04:30;29.10;43.90
12481;DHT22;6305;48.398;11.762;2023-08-08T09:06:58;29.50;42.40
12481;DHT22;6305;48.398;11.762;2023-08-08T09:09:31;29.90;42.40
12481;DHT22;6305;48.398;11.762;2023-08-08T09:11:58;31.00;41.50
12481;DHT22;6305;48.398;11.762;2023-08-08T09:14:26;30.90;40.50
12481;DHT22;6305;48.398;11.762;2023-08-08T09:16:54;30.30;40.80
12481;DHT22;6305;48.398;11.762;2023-08-08T09:19:22;29.60;40.80
12481;DHT22;6305;48.398;11.762;2023-08-08T09:21:51;28.80;42.60
12481;DHT22;6305;48.398;11.762;2023-08-08T09:24:18;28.80;42.70
12481;DHT22;6305;48.398;11.762;2023-08-08T09:26:47;29.20;42.60
12481;DHT22;6305;48.398;11.762;2023-08-08T09:29:14;29.00;42.50
12481;DHT22;6305;48.398;11.762;2023-08-08T09:31:41;29.40;42.40
12481;DHT22;6305;48.398;11.762;2023-08-08T09:34:08;28.80;42.50
12481;DHT22;6305;48.398;11.762;2023-08-08T09:36:35;28.60;42.20
12481;DHT22;6305;48.398;11.762;2023-08-08T09:39:03;27.60;43.30
12481;DHT22;6305;48.398;11.762;2023-08-08T09:41:30;26.70;45.20
12481;DHT22;6305;48.398;11.762;2023-08-08T09:43:59;26.10;46.20
12481;DHT22;6305;48.398;11.762;2023-08-08T09:46:29;26.70;46.60
12481;DHT22;6305;48.398;11.762;2023-08-08T09:48:57;26.80;45.70
12481;DHT22;6305;48.398;11.762;2023-08-08T09:51:25;26.90;46.50
12481;DHT22;6305;48.398;11.762;2023-08-08T09:53:53;26.80;45.70
12481;DHT22;6305;48.398;11.762;2023-08-08T09:56:20;25.90;46.20
12481;DHT22;6305;48.398;11.762;2023-08-08T09:58:48;25.60;47.90
12481;DHT22;6305;48.398;11.762;2023-08-08T10:01:16;25.10;48.30
12481;DHT22;6305;48.398;11.762;2023-08-08T10:03:45;25.00;49.20
12481;DHT22;6305;48.398;11.762;2023-08-08T10:06:13;24.70;49.60
12481;DHT22;6305;48.398;11.762;2023-08-08T10:08:40;24.80;50.10
12481;DHT22;6305;48.398;11.762;2023-08-08T10:11:09;25.50;50.10
12481;DHT22;6305;48.398;11.762;2023-08-08T10:13:37;26.00;47.30
12481;DHT22;6305;48.398;11.762;2023-08-08T10:16:08;26.20;46.00
12481;DHT22;6305;48.398;11.762;2023-08-08T10:18:36;26.60;47.10
12481;DHT22;6305;48.398;11.762;2023-08-08T10:21:04;27.60;44.90
12481;DHT22;6305;48.398;11.762;2023-08-08T10:23:36;27.80;42.90
12481;DHT22;6305;48.398;11.762;2023-08-08T10:26:05;27.70;43.40
12481;DHT22;6305;48.398;11.762;2023-08-08T10:28:33;27.60;42.60
12481;DHT22;6305;48.398;11.762;2023-08-08T10:31:01;27.10;43.10
12481;DHT22;6305;48.398;11.762;2023-08-08T10:33:42;27.10;44.70
12481;DHT22;6305;48.398;11.762;2023-08-08T10:36:10;26.80;43.30
12481;DHT22;6305;48.398;11.762;2023-08-08T10:38:41;26.90;44.10
12481;DHT22;6305;48.398;11.762;2023-08-08T10:41:10;27.10;42.60
12481;DHT22;6305;48.398;11.762;2023-08-08T10:43:37;27.20;42.30
12481;DHT22;6305;48.398;11.762;2023-08-08T10:46:06;27.10;42.50
12481;DHT22;6305;48.398;11.762;2023-08-08T10:48:33;27.20;42.60
12481;DHT22;6305;48.398;11.762;2023-08-08T10:51:02;27.30;42.80
12481;DHT22;6305;48.398;11.762;2023-08-08T10:53:29;27.50;42.60
12481;DHT22;6305;48.398;11.762;2023-08-08T10:55:57;27.00;42.90
12481;DHT22;6305;48.398;11.762;2023-08-08T10:58:35;26.70;43.50
12481;DHT22;6305;48.398;11.762;2023-08-08T11:01:02;27.10;43.60
12481;DHT22;6305;48.398;11.762;2023-08-08T11:03:31;27.80;43.40
12481;DHT22;6305;48.398;11.762;2023-08-08T11:05:58;27.80;42.90
12481;DHT22;6305;48.398;11.762;2023-08-08T11:08:27;27.90;42.40
12481;DHT22;6305;48.398;11.762;2023-08-08T11:10:57;28.10;43.60
12481;DHT22;6305;48.398;11.762;2023-08-08T11:13:24;28.50;41.60
12481;DHT22;6305;48.398;11.762;2023-08-08T11:15:51;28.60;41.50
12481;DHT22;6305;48.398;11.762;2023-08-08T11:18:18;28.70;40.30
12481;DHT22;6305;48.398;11.762;2023-08-08T11:20:45;28.60;40.30
12481;DHT22;6305;48.398;11.762;2023-08-08T11:23:12;28.20;40.80
12481;DHT22;6305;48.398;11.762;2023-08-08T11:25:42;27.40;40.80
12481;DHT22;6305;48.398;11.762;2023-08-08T11:28:09;26.00;42.30
12481;DHT22;6305;48.398;11.762;2023-08-08T11:30:38;25.20;44.10
12481;DHT22;6305;48.398;11.762;2023-08-08T11:33:05;24.90;45.30
12481;DHT22;6305;48.398;11.762;2023-08-08T11:35:33;25.10;46.40
12481;DHT22;6305;48.398;11.762;2023-08-08T11:38:02;26.70;44.90
12481;DHT22;6305;48.398;11.762;2023-08-08T11:40:30;28.20;42.50
12481;DHT22;6305;48.398;11.762;2023-08-08T11:42:59;29.10;40.50
12481;DHT22;6305;48.398;11.762;2023-08-08T11:45:26;29.80;39.40
12481;DHT22;6305;48.398;11.762;2023-08-08T11:47:54;29.70;37.60
12481;DHT22;6305;48.398;11.762;2023-08-08T11:50:23;29.40;38.30
12481;DHT22;6305;48.398;11.762;2023-08-08T11:52:51;30.00;37.50
12481;DHT22;6305;48.398;11.762;2023-08-08T11:55:19;30.40;36.60
12481;DHT22;6305;48.398;11.762;2023-08-08T11:57:48;30.90;36.10
12481;DHT22;6305;48.398;11.762;2023-08-08T12:00:17;30.10;35.70
12481;DHT22;6305;48.398;11.762;2023-08-08T12:02:44;28.50;38.00
12481;DHT22;6305;48.398;11.762;2023-08-08T12:05:13;27.60;40.70
12481;DHT22;6305;48.398;11.762;2023-08-08T12:07:43;28.10;41.40
12481;DHT22;6305;48.398;11.762;2023-08-08T12:10:15;29.10;38.70
12481;DHT22;6305;48.398;11.762;2023-08-08T12:12:43;29.80;37.50
12481;DHT22;6305;48.398;11.762;2023-08-08T12:15:11;29.10;37.30
12481;DHT22;6305;48.398;11.762;2023-08-08T12:17:42;28.40;39.10
12481;DHT22;6305;48.398;11.762;2023-08-08T12:20:09;29.10;39.50
12481;DHT22;6305;48.398;11.762;2023-08-08T12:22:36;29.70;37.90
12481;DHT22;6305;48.398;11.762;2023-08-08T12:25:04;29.60;36.30
12481;DHT22;6305;48.398;11.762;2023-08-08T12:27:31;28.60;36.30
12481;DHT22;6305;48.398;11.762;2023-08-08T12:29:58;27.90;37.50
12481;DHT22;6305;48.398;11.762;2023-08-08T12:32:26;27.80;38.70
12481;DHT22;6305;48.398;11.762;2023-08-08T12:34:56;28.40;39.00
12481;DHT22;6305;48.398;11.762;2023-08-08T12:37:23;28.10;38.60
12481;DHT22;6305;48.398;11.762;2023-08-08T12:39:50;28.10;38.90
12481;DHT22;6305;48.398;11.762;2023-08-08T12:42:18;28.70;38.90
12481;DHT22;6305;48.398;11.762;2023-08-08T12:44:45;29.10;37.80
12481;DHT22;6305;48.398;11.762;2023-08-08T12:47:12;29.10;36.80
12481;DHT22;6305;48.398;11.762;2023-08-08T12:49:39;28.80;37.70
12481;DHT22;6305;48.398;11.762;2023-08-08T12:52:07;28.90;37.60
12481;DHT22;6305;48.398;11.762;2023-08-08T12:54:34;28.60;37.60
12481;DHT22;6305;48.398;11.762;2023-08-08T12:57:02;28.40;37.90
12481;DHT22;6305;48.398;11.762;2023-08-08T12:59:29;27.60;38.60
12481;DHT22;6305;48.398;11.762;2023-08-08T13:01:57;27.20;40.00
12481;DHT22;6305;48.398;11.762;2023-08-08T13:04:23;26.90;41.30
12481;DHT22;6305;48.398;11.762;2023-08-08T13:06:50;27.10;41.10
12481;DHT22;6305;48.398;11.762;2023-08-08T13:09:19;28.00;40.60
12481;DHT22;6305;48.398;11.762;2023-08-08T13:11:46;28.60;39.20
12481;DHT22;6305;48.398;11.762;2023-08-08T13:14:13;28.30;38.40
12481;DHT22;6305;48.398;11.762;2023-08-08T13:16:40;27.80;38.70
12481;DHT22;6305;48.398;11.762;2023-08-08T13:19:07;27.20;40.90
12481;DHT22;6305;48.398;11.762;2023-08-08T13:21:34;26.90;41.90
12481;DHT22;6305;48.398;11.762;2023-08-08T13:24:01;27.50;42.40
12481;DHT22;6305;48.398;11.762;2023-08-08T13:26:30;28.10;39.60
12481;DHT22;6305;48.398;11.762;2023-08-08T13:28:57;28.30;39.30
12481;DHT22;6305;48.398;11.762;2023-08-08T13:31:24;29.00;38.90
12481;DHT22;6305;48.398;11.762;2023-08-08T13:33:51;30.00;36.10
12481;DHT22;6305;48.398;11.762;2023-08-08T13:36:18;29.70;36.30
12481;DHT22;6305;48.398;11.762;2023-08-08T13:38:45;28.70;36.90
12481;DHT22;6305;48.398;11.762;2023-08-08T13:41:12;27.70;38.70
12481;DHT22;6305;48.398;11.762;2023-08-08T13:43:41;27.40;40.20
12481;DHT22;6305;48.398;11.762;2023-08-08T13:46:08;28.00;39.60
12481;DHT22;6305;48.398;11.762;2023-08-08T13:48:35;28.70;38.40
12481;DHT22;6305;48.398;11.762;2023-08-08T13:51:02;29.50;37.40
12481;DHT22;6305;48.398;11.762;2023-08-08T13:53:29;29.80;36.00
12481;DHT22;6305;48.398;11.762;2023-08-08T13:55:56;30.00;36.20
12481;DHT22;6305;48.398;11.762;2023-08-08T13:58:23;30.20;36.00
12481;DHT22;6305;48.398;11.762;2023-08-08T14:00:52;30.60;35.60
12481;DHT22;6305;48.398;11.762;2023-08-08T14:03:19;30.80;34.70
12481;DHT22;6305;48.398;11.762;2023-08-08T14:05:46;29.60;35.00
12481;DHT22;6305;48.398;11.762;2023-08-08T14:08:13;28.80;36.30
12481;DHT22;6305;48.398;11.762;2023-08-08T14:10:40;29.40;38.00
12481;DHT22;6305;48.398;11.762;2023-08-08T14:13:07;30.60;36.90
12481;DHT22;6305;48.398;11.762;2023-08-08T14:15:34;31.20;35.30
12481;DHT22;6305;48.398;11.762;2023-08-08T14:18:07;30.90;34.10
12481;DHT22;6305;48.398;11.762;2023-08-08T14:20:34;31.10;35.30
12481;DHT22;6305;48.398;11.762;2023-08-08T14:23:01;31.40;34.90
12481;DHT22;6305;48.398;11.762;2023-08-08T14:25:28;31.80;34.70
12481;DHT22;6305;48.398;11.762;2023-08-08T14:27:55;31.90;33.60
12481;DHT22;6305;48.398;11.762;2023-08-08T14:30:23;31.90;34.30
12481;DHT22;6305;48.398;11.762;2023-08-08T14:32:51;32.00;34.30
12481;DHT22;6305;48.398;11.762;2023-08-08T14:35:19;31.50;33.90
12481;DHT22;6305;48.398;11.762;2023-08-08T14:37:46;31.40;34.90
12481;DHT22;6305;48.398;11.762;2023-08-08T14:40:13;30.90;34.60
12481;DHT22;6305;48.398;11.762;2023-08-08T14:42:40;30.60;35.70
12481;DHT22;6305;48.398;11.762;2023-08-08T14:45:08;30.60;35.60
12481;DHT22;6305;48.398;11.762;2023-08-08T14:47:35;30.20;36.10
12481;DHT22;6305;48.398;11.762;2023-08-08T14:50:03;29.70;36.50
12481;DHT22;6305;48.398;11.762;2023-08-08T14:52:31;28.50;37.30
12481;DHT22;6305;48.398;11.762;2023-08-08T14:54:58;27.60;39.10
12481;DHT22;6305;48.398;11.762;2023-08-08T14:57:25;27.20;40.10
12481;DHT22;6305;48.398;11.762;2023-08-08T14:59:52;26.90;39.30
12481;DHT22;6305;48.398;11.762;2023-08-08T15:02:22;26.80;38.80
12481;DHT22;6305;48.398;11.762;2023-08-08T15:04:49;26.90;38.90
12481;DHT22;6305;48.398;11.762;2023-08-08T15:07:16;27.40;38.40
12481;DHT22;6305;48.398;11.762;2023-08-08T15:09:44;28.00;38.60
12481;DHT22;6305;48.398;11.762;2023-08-08T15:12:14;28.60;36.90
12481;DHT22;6305;48.398;11.762;2023-08-08T15:14:41;28.20;36.30
12481;DHT22;6305;48.398;11.762;2023-08-08T15:17:08;28.10;37.40
12481;DHT22;6305;48.398;11.762;2023-08-08T15:19:35;27.70;37.70
12481;DHT22;6305;48.398;11.762;2023-08-08T15:22:03;27.20;38.30
12481;DHT22;6305;48.398;11.762;2023-08-08T15:24:30;26.80;39.20
12481;DHT22;6305;48.398;11.762;2023-08-08T15:27:00;26.60;40.00
12481;DHT22;6305;48.398;11.762;2023-08-08T15:29:27;26.30;40.20
12481;DHT22;6305;48.398;11.762;2023-08-08T15:31:54;26.30;41.40
12481;DHT22;6305;48.398;11.762;2023-08-08T15:34:21;26.40;41.20
12481;DHT22;6305;48.398;11.762;2023-08-08T15:36:48;26.70;41.90
12481;DHT22;6305;48.398;11.762;2023-08-08T15:39:15;26.80;41.20